Time;durP1;ratioP1;P1;durP2;ratioP2;P2;SDS_P1;SDS_P2;PMS_P1;PMS_P2;Temp;Humidity;BMP_temperature;BMP_pressure;BME280_temperature;BME280_humidity;BME280_pressure;Samples;Min_cycle;Max_cycle;Signal;HPM_P1;HPM_P2
2022/10/25 04:02:58;;;;;;;0.60;0.10;;;14.00;1.00;;;;;;4917622;29;20872;-78
2022/10/25 04:05:30;;;;;;;0.60;0.10;;;13.90;1.00;;;;;;4931671;29;20464;-80
2022/10/25 04:07:58;;;;;;;1.10;0.20;;;13.90;1.00;;;;;;4938716;29;20435;-78
2022/10/25 04:10:27;;;;;;;0.60;0.10;;;;;;;;;;4940448;29;20475;-78
2022/10/25 04:12:55;;;;;;;0.60;0.10;;;13.70;1.00;;;;;;4921119;29;20475;-79
2022/10/25 04:15:24;;;;;;;0.60;0.10;;;13.60;1.00;;;;;;4910895;29;20504;-79
2022/10/25 04:17:52;;;;;;;0.60;0.10;;;13.60;1.00;;;;;;4915381;29;20448;-79
2022/10/25 04:20:22;;;;;;;0.60;0.10;;;13.60;1.00;;;;;;4913016;29;20480;-79
2022/10/25 04:22:54;;;;;;;0.60;0.10;;;13.50;1.00;;;;;;4904638;29;20886;-79
2022/10/25 04:25:23;;;;;;;0.60;0.10;;;13.50;1.00;;;;;;4903443;29;20952;-78
2022/10/25 04:27:51;;;;;;;0.60;0.10;;;13.60;1.00;;;;;;4908744;29;20505;-78
2022/10/25 04:30:19;;;;;;;0.70;0.30;;;13.60;1.00;;;;;;4906208;29;20476;-78
2022/10/25 04:32:47;;;;;;;0.90;0.57;;;13.50;1.00;;;;;;4905771;29;20477;-78
2022/10/25 04:35:15;;;;;;;0.60;0.10;;;13.50;1.00;;;;;;4896788;29;21043;-78
2022/10/25 04:37:46;;;;;;;0.80;0.63;;;13.50;1.00;;;;;;4906458;29;20473;-80
2022/10/25 04:40:14;;;;;;;0.60;0.20;;;13.40;1.00;;;;;;4913104;29;20481;-79
2022/10/25 04:42:41;;;;;;;0.60;0.10;;;13.40;1.00;;;;;;4915440;29;20477;-80
2022/10/25 04:45:10;;;;;;;0.60;0.10;;;13.40;1.00;;;;;;4918894;29;20453;-79
2022/10/25 04:47:38;;;;;;;0.60;0.17;;;13.40;1.00;;;;;;4907040;29;20468;-80
2022/10/25 04:50:07;;;;;;;0.60;0.10;;;13.40;1.00;;;;;;4912335;29;20517;-80
2022/10/25 04:52:35;;;;;;;0.60;0.10;;;13.50;1.00;;;;;;4922189;29;20512;-79
2022/10/25 04:55:04;;;;;;;0.60;0.10;;;13.50;1.00;;;;;;4905717;29;20481;-80
2022/10/25 04:57:32;;;;;;;0.60;0.10;;;13.50;1.00;;;;;;4920316;29;20453;-79
2022/10/25 05:00:00;;;;;;;0.60;0.10;;;13.60;1.00;;;;;;4933342;29;20445;-79
2022/10/25 05:02:28;;;;;;;0.60;0.20;;;13.60;1.00;;;;;;4911210;29;20538;-80
2022/10/25 05:04:56;;;;;;;0.60;0.10;;;13.60;1.00;;;;;;4911020;29;20477;-79
2022/10/25 05:07:24;;;;;;;0.60;0.20;;;13.60;1.00;;;;;;4910724;29;20449;-78
2022/10/25 05:09:52;;;;;;;0.60;0.10;;;13.70;1.00;;;;;;4909212;29;20465;-80
2022/10/25 05:12:23;;;;;;;0.60;0.10;;;13.70;1.00;;;;;;4909503;29;20514;-79
2022/10/25 05:14:51;;;;;;;2.23;1.37;;;13.70;1.00;;;;;;4910660;29;20449;-79
2022/10/25 05:17:18;;;;;;;0.60;0.20;;;13.60;1.00;;;;;;4911386;29;20465;-80
2022/10/25 05:19:47;;;;;;;0.60;0.10;;;13.50;1.00;;;;;;4912705;29;20442;-79
2022/10/25 05:22:14;;;;;;;0.60;0.10;;;13.40;1.00;;;;;;4905019;29;20497;-79
2022/10/25 05:24:42;;;;;;;0.60;0.10;;;13.40;1.00;;;;;;4903529;29;20505;-79
2022/10/25 05:27:10;;;;;;;0.60;0.10;;;13.40;1.00;;;;;;4903821;29;21143;-78
2022/10/25 05:29:39;;;;;;;0.60;0.10;;;13.30;1.00;;;;;;4904985;29;20453;-78
2022/10/25 05:32:07;;;;;;;0.60;0.10;;;13.30;1.00;;;;;;4906566;29;20498;-78
2022/10/25 05:34:35;;;;;;;0.70;0.43;;;13.30;1.00;;;;;;4911597;29;20478;-77
2022/10/25 05:37:03;;;;;;;0.60;0.20;;;13.30;1.00;;;;;;4912280;29;20458;-79
2022/10/25 05:39:31;;;;;;;0.60;0.20;;;;;;;;;;4911890;29;20450;-78
2022/10/25 05:42:01;;;;;;;0.60;0.10;;;13.30;6.30;;;;;;4909766;29;20500;-79
2022/10/25 05:44:29;;;;;;;0.60;0.10;;;13.30;8.70;;;;;;4913166;29;20481;-78
2022/10/25 05:46:58;;;;;;;0.60;0.10;;;13.20;6.40;;;;;;4925195;29;20460;-78
2022/10/25 05:49:26;;;;;;;0.60;0.10;;;13.20;10.10;;;;;;4918369;29;20469;-80
2022/10/25 05:51:54;;;;;;;1.13;0.53;;;13.20;14.50;;;;;;4926531;29;20468;-78
2022/10/25 05:54:22;;;;;;;0.60;0.10;;;13.20;18.40;;;;;;4909606;29;20445;-78
2022/10/25 05:56:52;;;;;;;0.60;0.10;;;13.20;18.20;;;;;;4911279;29;20454;-79
2022/10/25 05:59:20;;;;;;;0.60;0.10;;;13.20;26.50;;;;;;4915073;29;20471;-80
2022/10/25 06:01:47;;;;;;;0.60;0.10;;;13.20;26.40;;;;;;4929184;29;20576;-79
2022/10/25 06:04:17;;;;;;;0.60;0.10;;;13.20;28.90;;;;;;4934166;29;20433;-78
2022/10/25 06:06:47;;;;;;;0.60;0.10;;;13.20;28.80;;;;;;4932980;29;20453;-78
2022/10/25 06:09:14;;;;;;;0.60;0.10;;;13.20;28.80;;;;;;4901167;29;20458;-79
2022/10/25 06:11:42;;;;;;;0.60;0.10;;;13.20;26.50;;;;;;4899689;29;20470;-76
2022/10/25 06:14:11;;;;;;;0.60;0.10;;;13.10;28.90;;;;;;4904674;29;20454;-76
2022/10/25 06:16:39;;;;;;;0.70;0.50;;;13.10;28.80;;;;;;4898588;29;20454;-75
2022/10/25 06:19:07;;;;;;;0.60;0.37;;;;;;;;;;4902191;29;20445;-79
2022/10/25 06:21:37;;;;;;;0.60;0.30;;;13.20;51.80;;;;;;4900213;29;20485;-78
2022/10/25 06:24:05;;;;;;;0.60;0.20;;;13.20;51.50;;;;;;4886498;29;20458;-73
2022/10/25 06:26:33;;;;;;;0.50;0.10;;;13.20;45.50;;;;;;4887887;29;20446;-79
2022/10/25 06:29:03;;;;;;;0.60;0.10;;;13.30;41.20;;;;;;4900308;29;20457;-79
2022/10/25 06:31:32;;;;;;;0.60;0.10;;;13.40;26.60;;;;;;4898990;29;20462;-79
2022/10/25 06:34:00;;;;;;;0.57;0.10;;;13.30;29.10;;;;;;4894447;29;20458;-78
2022/10/25 06:36:29;;;;;;;0.60;0.10;;;13.30;26.60;;;;;;4880484;29;20526;-78
2022/10/25 06:38:59;;;;;;;0.60;0.30;;;13.30;29.20;;;;;;4880294;29;20450;-79
2022/10/25 06:41:35;;;;;;;3.03;2.83;;;13.30;26.60;;;;;;4880624;29;20489;-80
2022/10/25 06:44:04;;;;;;;0.60;0.10;;;13.30;26.60;;;;;;4881677;29;20458;-79
2022/10/25 06:46:35;;;;;;;0.60;0.20;;;13.30;29.00;;;;;;4881261;29;20502;-79
2022/10/25 06:49:23;;;;;;;4.40;0.40;;;13.30;29.10;;;;;;4881767;29;20455;-80
2022/10/25 06:51:51;;;;;;;0.60;0.20;;;13.30;26.60;;;;;;4882155;29;20461;-80
2022/10/25 06:54:21;;;;;;;0.60;0.13;;;13.30;29.20;;;;;;4882692;29;20454;-79
2022/10/25 06:56:48;;;;;;;0.60;0.10;;;13.20;29.00;;;;;;4883438;29;20459;-80
2022/10/25 06:59:18;;;;;;;0.60;0.30;;;13.20;29.10;;;;;;4882975;29;20446;-80
2022/10/25 07:01:55;;;;;;;1.00;0.90;;;13.10;65.90;;;;;;4889902;29;20492;-81
2022/10/25 07:04:37;;;;;;;0.60;0.20;;;13.10;66.70;;;;;;4880856;29;20459;-81
2022/10/25 07:07:05;;;;;;;0.50;0.10;;;13.10;85.20;;;;;;4883588;29;20965;-81
2022/10/25 07:09:34;;;;;;;0.60;0.10;;;13.20;88.10;;;;;;4883696;29;20494;-78
2022/10/25 07:12:02;;;;;;;0.60;0.10;;;13.20;84.80;;;;;;4897859;29;20604;-81
2022/10/25 07:14:30;;;;;;;0.50;0.10;;;13.20;86.00;;;;;;4903297;29;20478;-80
2022/10/25 07:16:58;;;;;;;0.80;0.60;;;13.30;90.00;;;;;;4906468;29;20865;-78
2022/10/25 07:19:26;;;;;;;0.60;0.10;;;13.30;80.80;;;;;;4909452;29;20442;-79
2022/10/25 07:21:54;;;;;;;0.60;0.20;;;13.30;76.70;;;;;;4912772;29;20492;-77
2022/10/25 07:24:22;;;;;;;0.60;0.10;;;13.30;79.40;;;;;;4916754;29;20446;-80
2022/10/25 07:26:51;;;;;;;0.70;0.43;;;13.30;73.70;;;;;;4904466;29;20692;-78
2022/10/25 07:29:19;;;;;;;0.60;0.20;;;13.40;75.50;;;;;;4903517;29;20502;-79
2022/10/25 07:31:47;;;;;;;0.60;0.10;;;13.50;65.00;;;;;;4903952;29;20470;-81
2022/10/25 07:34:16;;;;;;;0.63;0.23;;;;;;;;;;4901496;29;20465;-80
2022/10/25 07:36:44;;;;;;;0.50;0.10;;;13.50;65.20;;;;;;4889535;29;21225;-79
2022/10/25 07:39:12;;;;;;;0.60;0.30;;;13.50;57.70;;;;;;4900732;29;20454;-79
2022/10/25 07:41:41;;;;;;;0.60;0.20;;;13.60;47.00;;;;;;4884114;29;20538;-80
2022/10/25 07:44:10;;;;;;;0.60;0.10;;;13.60;49.80;;;;;;4883807;29;20454;-78
2022/10/25 07:46:44;;;;;;;0.60;0.33;;;13.70;56.70;;;;;;4884509;29;20526;-81
2022/10/25 07:49:12;;;;;;;0.60;0.20;;;13.80;34.50;;;;;;4885837;29;20454;-79
2022/10/25 07:51:40;;;;;;;0.60;0.10;;;13.90;27.00;;;;;;4884858;29;20533;-78
2022/10/25 07:54:11;;;;;;;0.60;0.10;;;;;;;;;;4895471;29;20476;-80
2022/10/25 07:56:39;;;;;;;0.60;0.10;;;14.00;7.90;;;;;;4909640;29;20462;-79
2022/10/25 07:59:07;;;;;;;0.60;0.10;;;14.00;11.30;;;;;;4904226;29;20446;-81
2022/10/25 08:01:37;;;;;;;0.60;0.10;;;;;;;;;;4902731;29;20517;-79
2022/10/25 08:04:05;;;;;;;0.60;0.10;;;14.20;1.00;;;;;;4906158;29;20438;-80
2022/10/25 08:06:51;;;;;;;0.60;0.10;;;14.20;1.00;;;;;;4906411;29;20457;-80
2022/10/25 08:09:21;;;;;;;0.60;0.20;;;14.40;1.00;;;;;;4904112;29;20842;-78
2022/10/25 08:12:05;;;;;;;0.60;0.10;;;14.40;1.00;;;;;;4889419;29;20466;-78
2022/10/25 08:14:32;;;;;;;0.60;0.10;;;14.50;1.00;;;;;;4908168;29;20469;-78
2022/10/25 08:17:11;;;;;;;0.60;0.10;;;14.60;1.00;;;;;;4921856;29;20487;-79
2022/10/25 08:19:39;;;;;;;0.80;0.67;;;14.60;1.00;;;;;;4911529;29;20462;-79
2022/10/25 08:22:08;;;;;;;0.60;0.10;;;14.60;1.00;;;;;;4896281;29;20497;-79
2022/10/25 08:24:37;;;;;;;0.60;0.10;;;14.70;1.00;;;;;;4898194;29;20827;-79
2022/10/25 08:27:05;;;;;;;0.60;0.10;;;14.60;1.00;;;;;;4889051;29;20446;-79
2022/10/25 08:29:33;;;;;;;0.60;0.10;;;14.80;1.00;;;;;;4893322;29;20451;-79
2022/10/25 08:32:04;;;;;;;0.60;0.10;;;14.80;1.00;;;;;;4903225;29;20473;-80
2022/10/25 08:34:37;;;;;;;0.60;0.10;;;;;;;;;;4906398;29;20505;-80
2022/10/25 08:37:05;;;;;;;0.60;0.10;;;;;;;;;;4909224;29;20426;-78
2022/10/25 08:39:33;;;;;;;0.60;0.10;;;14.80;1.00;;;;;;4915973;29;20446;-79
2022/10/25 08:42:02;;;;;;;0.60;0.10;;;15.00;1.00;;;;;;4908987;29;20522;-79
2022/10/25 08:44:42;;;;;;;0.60;0.10;;;15.10;1.00;;;;;;4902102;29;20514;-78
2022/10/25 08:47:17;;;;;;;0.60;0.10;;;15.10;1.00;;;;;;4904022;29;20461;-81
2022/10/25 08:49:55;;;;;;;0.60;0.10;;;15.10;1.00;;;;;;4906618;29;20480;-78
2022/10/25 08:52:29;;;;;;;0.60;0.10;;;15.10;1.00;;;;;;4897519;29;20470;-79
2022/10/25 08:55:02;;;;;;;0.60;0.10;;;15.10;1.00;;;;;;4906597;29;20541;-78
2022/10/25 08:57:37;;;;;;;0.60;0.10;;;15.20;1.00;;;;;;4911137;29;20479;-79
2022/10/25 09:00:12;;;;;;;0.60;0.10;;;15.20;1.00;;;;;;4902028;29;20445;-78
2022/10/25 09:02:49;;;;;;;0.60;0.10;;;15.20;1.00;;;;;;4884927;29;20490;-78
2022/10/25 09:05:34;;;;;;;0.60;0.10;;;15.30;1.00;;;;;;4888440;29;20442;-79
2022/10/25 09:08:26;;;;;;;0.60;0.10;;;15.30;1.00;;;;;;4890590;29;20545;-80
2022/10/25 09:11:01;;;;;;;2.00;1.90;;;15.40;1.00;;;;;;4884666;29;20942;-78
2022/10/25 09:13:40;;;;;;;0.60;0.10;;;15.40;1.00;;;;;;4885002;29;20438;-79
2022/10/25 09:16:16;;;;;;;0.60;0.10;;;15.50;1.00;;;;;;4891758;29;20434;-79
2022/10/25 09:18:48;;;;;;;0.60;0.10;;;15.60;1.00;;;;;;4897768;29;20450;-78
2022/10/25 09:21:21;;;;;;;0.60;0.10;;;15.70;1.00;;;;;;4888200;29;20454;-79
2022/10/25 09:24:01;;;;;;;0.60;0.10;;;15.70;1.00;;;;;;4888317;29;20553;-80
2022/10/25 09:26:40;;;;;;;0.60;0.20;;;15.80;1.00;;;;;;4884991;29;20495;-78
2022/10/25 09:29:15;;;;;;;0.60;0.20;;;15.80;1.00;;;;;;4888628;29;20446;-81
2022/10/25 09:31:48;;;;;;;0.60;0.10;;;15.80;1.00;;;;;;4896783;29;20522;-79
2022/10/25 09:34:19;;;;;;;0.90;0.30;;;15.80;1.00;;;;;;4884733;29;20451;-80
2022/10/25 09:36:52;;;;;;;0.60;0.10;;;15.80;1.00;;;;;;4884945;29;20435;-79
2022/10/25 09:39:24;;;;;;;0.60;0.20;;;15.80;1.00;;;;;;4888877;29;20458;-79
2022/10/25 09:41:54;;;;;;;0.60;0.10;;;15.80;1.00;;;;;;4907264;29;20478;-80
2022/10/25 09:44:34;;;;;;;0.60;0.20;;;15.80;1.00;;;;;;4910503;29;20545;-79
2022/10/25 09:47:11;;;;;;;0.60;0.10;;;15.90;1.00;;;;;;4916378;29;20458;-80
2022/10/25 09:49:47;;;;;;;1.03;0.93;;;15.90;1.00;;;;;;4916854;29;20916;-80
2022/10/25 09:52:24;;;;;;;0.60;0.20;;;16.00;1.00;;;;;;4916650;29;20560;-80
2022/10/25 09:54:54;;;;;;;0.60;0.10;;;16.00;1.00;;;;;;4908769;29;20466;-79
2022/10/25 09:57:22;;;;;;;0.60;0.10;;;16.10;1.00;;;;;;4897693;29;20463;-79
2022/10/25 09:59:51;;;;;;;0.60;0.10;;;16.10;1.00;;;;;;4891703;29;20451;-79
2022/10/25 10:02:24;;;;;;;0.60;0.10;;;16.10;1.00;;;;;;4890633;29;20562;-79
2022/10/25 10:04:53;;;;;;;0.60;0.10;;;16.10;1.00;;;;;;4891511;29;20523;-80
2022/10/25 10:07:27;;;;;;;0.60;0.10;;;16.10;1.00;;;;;;4887029;29;20466;-79
2022/10/25 10:09:59;;;;;;;0.60;0.10;;;16.20;1.00;;;;;;4889823;29;20771;-79
2022/10/25 10:12:32;;;;;;;0.60;0.10;;;16.20;1.00;;;;;;4889540;29;20475;-80
2022/10/25 10:15:04;;;;;;;0.60;0.10;;;16.20;1.00;;;;;;4931049;23;20589;-77
2022/10/25 10:17:32;;;;;;;0.60;0.10;;;16.20;1.00;;;;;;4972040;28;20443;-77
2022/10/25 10:20:15;;;;;;;0.60;0.10;;;16.90;1.00;;;;;;4974983;28;20494;-77
2022/10/25 10:22:51;;;;;;;1.20;0.70;;;16.20;1.00;;;;;;4976418;28;20458;-77
2022/10/25 10:25:22;;;;;;;0.60;0.10;;;16.10;1.00;;;;;;4976303;28;20493;-76
2022/10/25 10:27:53;;;;;;;0.60;0.40;;;16.10;1.00;;;;;;4976779;28;20501;-75
2022/10/25 10:30:24;;;;;;;0.60;0.20;;;16.20;1.00;;;;;;4977932;28;20489;-77
2022/10/25 10:32:57;;;;;;;0.70;0.47;;;16.20;1.00;;;;;;4977804;28;20968;-76
2022/10/25 10:35:28;;;;;;;0.60;0.10;;;16.30;1.00;;;;;;4977756;28;20470;-77
2022/10/25 10:38:22;;;;;;;0.60;0.20;;;16.30;1.00;;;;;;4978625;28;20449;-77
2022/10/25 10:40:51;;;;;;;0.60;0.10;;;16.40;1.00;;;;;;4972124;28;20520;-77
2022/10/25 10:43:24;;;;;;;0.60;0.10;;;16.40;1.00;;;;;;4968142;28;20498;-76
2022/10/25 10:45:52;;;;;;;0.60;0.10;;;16.50;1.00;;;;;;4957623;29;20474;-78
2022/10/25 10:48:22;;;;;;;0.60;0.10;;;16.50;1.00;;;;;;4966602;28;20442;-76
2022/10/25 10:50:51;;;;;;;0.60;0.10;;;16.60;1.00;;;;;;4959576;29;20953;-76
2022/10/25 10:53:24;;;;;;;0.60;0.20;;;16.60;1.00;;;;;;4957905;29;20447;-77
2022/10/25 10:55:53;;;;;;;0.60;0.10;;;16.60;1.00;;;;;;4958086;29;20475;-75
2022/10/25 10:58:24;;;;;;;0.60;0.10;;;16.60;1.00;;;;;;4958876;29;20443;-76
2022/10/25 11:00:55;;;;;;;0.60;0.10;;;16.60;1.00;;;;;;4959334;29;20449;-76
2022/10/25 11:03:46;;;;;;;0.60;0.10;;;16.60;1.00;;;;;;4956741;29;20478;-77
2022/10/25 11:06:29;;;;;;;1.03;0.77;;;16.70;1.00;;;;;;4975927;28;20466;-77
2022/10/25 11:09:16;;;;;;;0.60;0.10;;;16.80;1.00;;;;;;4976900;28;20833;-75
2022/10/25 11:11:45;;;;;;;0.60;0.10;;;16.80;1.00;;;;;;4971574;28;20494;-76
2022/10/25 11:14:18;;;;;;;0.70;0.70;;;16.80;1.00;;;;;;4976213;28;20464;-76
2022/10/25 11:16:57;;;;;;;0.60;0.10;;;16.80;1.00;;;;;;4977336;28;20485;-76
2022/10/25 11:20:09;;;;;;;0.60;0.10;;;16.80;1.00;;;;;;4976996;28;20502;-76
2022/10/25 11:22:57;;;;;;;0.60;0.20;;;16.90;1.00;;;;;;4937644;28;20450;-75
2022/10/25 11:25:38;;;;;;;0.60;0.10;;;17.00;1.00;;;;;;4974753;28;20497;-77
2022/10/25 11:28:19;;;;;;;0.60;0.10;;;17.00;1.00;;;;;;4974128;28;20445;-77
2022/10/25 11:30:59;;;;;;;0.60;0.10;;;17.10;1.00;;;;;;4974539;28;20557;-77
2022/10/25 11:33:51;;;;;;;0.60;0.10;;;17.20;1.00;;;;;;4973952;28;20484;-76
2022/10/25 11:36:38;;;;;;;0.60;0.20;;;17.30;1.00;;;;;;4975529;28;20489;-76
2022/10/25 11:39:18;;;;;;;0.60;0.17;;;17.30;1.00;;;;;;4978340;28;20529;-77
2022/10/25 11:41:49;;;;;;;0.60;0.10;;;17.40;1.00;;;;;;4978863;28;20458;-77
2022/10/25 11:44:39;;;;;;;0.60;0.10;;;17.40;1.00;;;;;;4977782;28;20996;-76
2022/10/25 11:47:25;;;;;;;0.60;0.10;;;17.40;1.00;;;;;;4978577;28;20571;-76
2022/10/25 11:50:03;;;;;;;0.60;0.10;;;17.40;1.00;;;;;;4979456;28;20473;-76
2022/10/25 11:52:53;;;;;;;0.60;0.10;;;17.40;1.00;;;;;;4978795;28;20449;-77
2022/10/25 11:55:34;;;;;;;0.60;0.10;;;17.70;1.00;;;;;;4979314;28;20558;-76
2022/10/25 11:58:18;;;;;;;0.60;0.20;;;17.70;1.00;;;;;;4979756;28;20449;-78
2022/10/25 12:00:55;;;;;;;0.60;0.10;;;17.70;1.00;;;;;;4978654;28;21015;-76
2022/10/25 12:03:44;;;;;;;0.60;0.10;;;17.70;1.00;;;;;;4979720;28;20450;-78
2022/10/25 12:06:18;;;;;;;0.60;0.10;;;17.90;1.00;;;;;;4978336;28;20516;-77
2022/10/25 12:09:01;;;;;;;0.60;0.10;;;17.90;1.00;;;;;;4978794;28;20818;-77
2022/10/25 12:11:33;;;;;;;0.60;0.10;;;18.00;1.00;;;;;;4977580;28;20505;-76
2022/10/25 12:14:07;;;;;;;0.60;0.10;;;18.00;1.00;;;;;;4978556;28;20538;-78
2022/10/25 12:16:36;;;;;;;0.60;0.10;;;18.00;1.00;;;;;;4978747;28;20536;-76
2022/10/25 12:19:12;;;;;;;0.60;0.10;;;18.00;1.00;;;;;;4991216;28;20439;-78
2022/10/25 12:21:43;;;;;;;0.60;0.10;;;18.00;1.00;;;;;;4992963;28;20475;-78
2022/10/25 12:24:18;;;;;;;0.60;0.10;;;18.10;1.00;;;;;;4981390;28;20492;-76
2022/10/25 12:26:48;;;;;;;0.60;0.10;;;18.20;1.00;;;;;;4978502;28;20532;-78
2022/10/25 12:29:24;;;;;;;0.60;0.10;;;18.30;1.00;;;;;;4978547;28;20936;-77
2022/10/25 12:31:56;;;;;;;0.60;0.10;;;18.30;1.00;;;;;;4977720;28;20450;-77
2022/10/25 12:34:32;;;;;;;0.80;0.30;;;18.20;1.00;;;;;;4979149;28;20834;-79
2022/10/25 12:37:05;;;;;;;0.60;0.10;;;18.30;1.00;;;;;;4979344;28;20488;-78
2022/10/25 12:39:38;;;;;;;0.60;0.10;;;18.20;1.00;;;;;;4979679;28;20448;-77
2022/10/25 12:42:14;;;;;;;0.60;0.10;;;18.20;1.00;;;;;;4979667;28;20942;-76
2022/10/25 12:45:23;;;;;;;0.60;0.20;;;18.20;1.00;;;;;;4979711;28;21027;-77
2022/10/25 12:48:03;;;;;;;0.60;0.10;;;18.20;1.00;;;;;;4979384;28;20504;-77
2022/10/25 12:50:51;;;;;;;0.60;0.10;;;18.10;1.00;;;;;;4980160;28;20434;-76
2022/10/25 12:53:49;;;;;;;0.60;0.10;;;18.20;1.00;;;;;;4980252;28;20454;-77
2022/10/25 12:56:31;;;;;;;0.60;0.10;;;18.10;1.00;;;;;;4973633;28;20473;-77
2022/10/25 12:59:08;;;;;;;0.60;0.10;;;18.10;1.00;;;;;;4978532;28;20529;-77
2022/10/25 13:01:51;;;;;;;0.60;0.10;;;;;;;;;;4959439;29;20447;-77
2022/10/25 13:04:46;;;;;;;0.70;0.27;;;18.20;1.00;;;;;;4959296;29;20481;-77
2022/10/25 13:07:16;;;;;;;0.60;0.20;;;18.20;1.00;;;;;;4960521;29;20953;-78
2022/10/25 13:09:44;;;;;;;0.60;0.10;;;18.20;1.00;;;;;;4974085;28;20458;-76
2022/10/25 13:12:21;;;;;;;0.60;0.10;;;18.50;1.00;;;;;;4979585;28;20504;-77
2022/10/25 13:14:51;;;;;;;0.60;0.10;;;18.70;1.00;;;;;;4959618;29;20451;-78
2022/10/25 13:17:47;;;;;;;0.60;0.20;;;18.70;1.00;;;;;;4958964;29;20946;-77
2022/10/25 13:20:49;;;;;;;0.90;0.70;;;18.60;1.00;;;;;;4957902;29;20883;-78
2022/10/25 13:23:58;;;;;;;0.70;0.20;;;18.60;1.00;;;;;;4959166;29;20477;-77
2022/10/25 13:26:30;;;;;;;0.60;0.20;;;18.70;1.00;;;;;;4959111;29;20495;-76
2022/10/25 13:29:01;;;;;;;0.60;0.10;;;18.70;1.00;;;;;;4960105;29;20564;-77
2022/10/25 13:31:46;;;;;;;0.60;0.10;;;18.80;1.00;;;;;;4958179;29;20479;-78
2022/10/25 13:34:34;;;;;;;0.60;0.10;;;18.80;1.00;;;;;;4957413;29;20443;-78
2022/10/25 13:37:04;;;;;;;0.60;0.10;;;18.80;1.00;;;;;;4966435;29;20466;-78
2022/10/25 13:39:36;;;;;;;0.70;0.43;;;18.90;1.00;;;;;;4961256;29;20450;-77
2022/10/25 13:42:20;;;;;;;0.60;0.23;;;18.90;1.00;;;;;;4956540;29;20446;-77
2022/10/25 13:44:54;;;;;;;0.60;0.20;;;18.50;1.00;;;;;;4958812;28;20458;-76
2022/10/25 13:47:31;;;;;;;0.60;0.10;;;18.50;1.00;;;;;;4976449;28;20446;-78
2022/10/25 13:50:01;;;;;;;0.60;0.10;;;18.50;1.00;;;;;;4975551;28;20528;-77
2022/10/25 13:52:32;;;;;;;0.60;0.10;;;18.60;1.00;;;;;;4975284;28;20858;-76
2022/10/25 13:55:04;;;;;;;0.60;0.10;;;18.80;1.00;;;;;;4975871;28;20964;-77
2022/10/25 13:57:50;;;;;;;0.60;0.10;;;18.80;1.00;;;;;;4975386;28;20505;-76
2022/10/25 14:00:35;;;;;;;0.60;0.10;;;19.00;1.00;;;;;;4976685;28;20446;-77
2022/10/25 14:03:23;;;;;;;0.60;0.20;;;19.10;1.00;;;;;;4976154;28;20557;-77
2022/10/25 14:06:21;;;;;;;0.60;0.10;;;19.30;1.00;;;;;;4977842;28;20545;-77
2022/10/25 14:09:09;;;;;;;0.60;0.10;;;20.20;1.00;;;;;;4976719;28;20449;-76
2022/10/25 14:11:39;;;;;;;0.60;0.10;;;19.40;1.00;;;;;;4976169;28;20450;-76
2022/10/25 14:14:19;;;;;;;0.60;0.10;;;19.40;1.00;;;;;;4973455;28;20995;-77
2022/10/25 14:17:01;;;;;;;0.60;0.20;;;19.40;1.00;;;;;;4975229;28;20501;-76
2022/10/25 14:19:36;;;;;;;0.60;0.10;;;19.40;1.00;;;;;;4974980;28;20953;-76
2022/10/25 14:22:14;;;;;;;0.60;0.10;;;19.40;1.00;;;;;;4974786;28;20445;-78
2022/10/25 14:24:43;;;;;;;0.60;0.10;;;19.40;1.00;;;;;;4975397;28;20488;-76
2022/10/25 14:27:28;;;;;;;0.60;0.10;;;19.40;1.00;;;;;;4975396;28;20481;-77
2022/10/25 14:30:12;;;;;;;0.60;0.10;;;19.50;1.00;;;;;;4974896;28;20501;-77
2022/10/25 14:32:47;;;;;;;0.60;0.10;;;19.40;1.00;;;;;;4967234;28;20438;-76
2022/10/25 14:35:16;;;;;;;0.60;0.10;;;19.20;1.00;;;;;;4955681;28;20463;-77
2022/10/25 14:37:45;;;;;;;0.60;0.10;;;19.10;1.00;;;;;;4961255;28;20498;-76
2022/10/25 14:40:19;;;;;;;0.60;0.10;;;19.00;1.00;;;;;;4957326;28;20450;-77
2022/10/25 14:42:47;;;;;;;0.60;0.10;;;19.00;1.00;;;;;;4962613;28;20446;-76
2022/10/25 14:45:20;;;;;;;0.60;0.10;;;19.00;1.00;;;;;;4958366;28;20467;-76
2022/10/25 14:47:48;;;;;;;0.60;0.13;;;;;;;;;;4956521;29;20605;-78
2022/10/25 14:50:17;;;;;;;0.60;0.20;;;19.10;1.00;;;;;;4955856;29;20605;-76
2022/10/25 14:52:48;;;;;;;0.60;0.10;;;19.00;1.00;;;;;;4956464;29;20474;-76
2022/10/25 14:55:28;;;;;;;0.60;0.10;;;19.00;1.00;;;;;;4967384;28;20462;-78
2022/10/25 14:57:57;;;;;;;0.60;0.10;;;18.90;1.00;;;;;;4983230;28;20446;-76
2022/10/25 15:00:25;;;;;;;0.60;0.10;;;18.80;1.00;;;;;;4986464;28;20458;-77
2022/10/25 15:03:00;;;;;;;0.60;0.10;;;18.80;1.00;;;;;;4980471;28;20489;-78
2022/10/25 15:05:28;;;;;;;0.60;0.10;;;18.60;1.00;;;;;;4976097;28;20478;-76
2022/10/25 15:07:58;;;;;;;0.60;0.10;;;18.60;1.00;;;;;;4967331;28;20462;-75
2022/10/25 15:10:43;;;;;;;0.60;0.10;;;18.50;1.00;;;;;;4959251;28;20945;-76
2022/10/25 15:13:20;;;;;;;0.60;0.10;;;18.30;1.00;;;;;;4977137;28;20451;-77
2022/10/25 15:15:52;;;;;;;0.60;0.10;;;18.30;1.00;;;;;;4978120;28;20469;-77
2022/10/25 15:18:30;;;;;;;0.60;0.10;;;18.30;1.00;;;;;;4971839;28;20509;-77
2022/10/25 15:21:07;;;;;;;0.60;0.10;;;18.30;1.00;;;;;;4969938;28;20508;-76
2022/10/25 15:23:37;;;;;;;0.60;0.10;;;18.20;1.00;;;;;;4972608;28;20477;-75
2022/10/25 15:26:28;;;;;;;0.60;0.10;;;18.20;1.00;;;;;;4976185;28;20474;-76
2022/10/25 15:28:58;;;;;;;0.60;0.10;;;18.10;1.00;;;;;;4978330;28;20457;-76
2022/10/25 15:31:28;;;;;;;0.60;0.10;;;;;;;;;;4978354;28;20454;-77
2022/10/25 15:34:00;;;;;;;0.60;0.10;;;18.10;1.00;;;;;;4978216;28;20446;-78
2022/10/25 15:36:30;;;;;;;0.60;0.10;;;18.10;1.00;;;;;;4978068;28;20473;-76
2022/10/25 15:39:22;;;;;;;0.60;0.10;;;18.10;1.00;;;;;;4977996;28;20442;-77
2022/10/25 15:41:50;;;;;;;0.60;0.10;;;18.10;1.00;;;;;;4978327;28;20965;-79
2022/10/25 15:44:18;;;;;;;0.60;0.10;;;18.10;1.00;;;;;;4977838;28;20450;-77
2022/10/25 15:46:47;;;;;;;0.60;0.10;;;18.10;1.00;;;;;;4978852;28;20550;-75
2022/10/25 15:49:16;;;;;;;0.60;0.20;;;18.10;1.00;;;;;;4979081;28;20449;-77
2022/10/25 15:51:45;;;;;;;0.60;0.10;;;18.10;1.00;;;;;;4979417;28;20931;-76
2022/10/25 15:54:21;;;;;;;0.60;0.10;;;18.10;1.00;;;;;;4979246;28;20822;-76
2022/10/25 15:56:50;;;;;;;0.60;0.10;;;18.00;1.00;;;;;;4979188;28;20465;-77
2022/10/25 15:59:18;;;;;;;0.60;0.20;;;18.00;1.00;;;;;;4979169;28;20456;-77
2022/10/25 16:01:48;;;;;;;0.60;0.13;;;17.90;1.00;;;;;;4978843;28;20449;-75
2022/10/25 16:04:18;;;;;;;0.60;0.10;;;17.90;1.00;;;;;;4978952;28;20478;-77
2022/10/25 16:06:47;;;;;;;0.60;0.20;;;17.90;1.00;;;;;;4977833;28;20521;-76
2022/10/25 16:09:16;;;;;;;0.60;0.10;;;17.80;1.00;;;;;;4969423;28;20455;-76
2022/10/25 16:11:48;;;;;;;0.60;0.10;;;17.80;1.00;;;;;;4967704;28;20575;-74
2022/10/25 16:14:24;;;;;;;0.60;0.10;;;17.80;1.00;;;;;;4967926;28;20446;-76
2022/10/25 16:16:52;;;;;;;0.60;0.10;;;17.80;1.00;;;;;;4999687;23;20577;-78
2022/10/25 16:19:21;;;;;;;0.60;0.10;;;17.70;1.00;;;;;;4969662;28;20438;-78
2022/10/25 16:21:48;;;;;;;0.60;0.10;;;17.70;1.00;;;;;;4968823;28;20439;-79
2022/10/25 16:24:18;;;;;;;0.60;0.10;;;17.60;1.00;;;;;;4963989;28;20454;-77
2022/10/25 16:26:50;;;;;;;0.60;0.10;;;17.60;1.00;;;;;;4958244;29;20551;-79
2022/10/25 16:29:19;;;;;;;0.60;0.10;;;17.50;1.00;;;;;;4959783;29;20481;-79
2022/10/25 16:31:47;;;;;;;0.60;0.10;;;17.50;1.00;;;;;;4965550;29;20447;-81
2022/10/25 16:34:16;;;;;;;0.60;0.10;;;17.50;1.00;;;;;;4962068;29;20494;-78
2022/10/25 16:36:44;;;;;;;0.60;0.13;;;17.50;1.00;;;;;;4961704;29;20474;-80
2022/10/25 16:39:12;;;;;;;0.60;0.10;;;17.40;1.00;;;;;;4962938;29;20451;-81
2022/10/25 16:41:42;;;;;;;0.60;0.10;;;17.40;1.00;;;;;;4960904;29;20537;-82
2022/10/25 16:44:12;;;;;;;0.60;0.10;;;17.40;1.00;;;;;;4962680;29;20470;-78
2022/10/25 16:46:40;;;;;;;0.60;0.10;;;17.40;1.00;;;;;;4963777;29;20505;-80
2022/10/25 16:49:08;;;;;;;0.60;0.10;;;17.30;1.00;;;;;;4957908;29;20882;-79
2022/10/25 16:51:37;;;;;;;0.60;0.10;;;17.30;1.00;;;;;;4957264;29;20459;-78
2022/10/25 16:54:05;;;;;;;0.60;0.23;;;17.20;1.00;;;;;;4957836;29;21017;-77
2022/10/25 16:56:34;;;;;;;0.60;0.10;;;17.20;1.00;;;;;;4956683;29;21039;-77
2022/10/25 16:59:04;;;;;;;0.60;0.10;;;;;;;;;;4939360;29;20532;-77
2022/10/25 17:01:35;;;;;;;0.60;0.10;;;17.10;1.00;;;;;;4928510;29;20488;-77
2022/10/25 17:04:09;;;;;;;0.60;0.10;;;17.10;1.00;;;;;;4936859;29;20910;-78
2022/10/25 17:06:37;;;;;;;0.60;0.10;;;17.10;1.00;;;;;;4936870;29;20486;-79
2022/10/25 17:09:09;;;;;;;0.60;0.10;;;17.00;1.00;;;;;;4931929;29;20460;-77
2022/10/25 17:11:37;;;;;;;0.60;0.13;;;16.90;1.00;;;;;;4930591;29;20871;-77
2022/10/25 17:14:08;;;;;;;0.60;0.10;;;16.90;1.00;;;;;;4935493;29;20460;-77
2022/10/25 17:16:38;;;;;;;0.60;0.10;;;16.80;1.00;;;;;;4919092;29;21774;-77
2022/10/25 17:19:06;;;;;;;0.60;0.10;;;16.80;1.00;;;;;;4924939;29;20962;-78
2022/10/25 17:21:43;;;;;;;0.60;0.10;;;16.80;1.00;;;;;;4935495;29;20452;-78
2022/10/25 17:24:10;;;;;;;0.60;0.10;;;16.80;1.00;;;;;;4937040;29;20456;-79
2022/10/25 17:26:39;;;;;;;0.60;0.10;;;16.70;1.00;;;;;;4934543;29;20472;-76
2022/10/25 17:29:08;;;;;;;0.60;0.10;;;16.70;1.00;;;;;;4928208;29;20812;-77
2022/10/25 17:31:39;;;;;;;0.60;0.10;;;16.70;1.00;;;;;;4936794;29;20542;-77